Terminal Aerodrome Forecast
Issued by NWS

Home | Current Version | Previous Version | Text Only | Print | Product List | Glossary On
Versions: 1 2 3 4 5 6 7 8 9 10 11 12 13 14 15 16 17 18 19 20
258
FTUS44 KLZK 280531
TAFHOT
TAF
KHOT 280531Z 2806/0106 12005KT P6SM VCSH OVC013 WS020/20040KT
     FM281200 20007KT P6SM VCSH SCT008 OVC015 WS020/20040KT
     FM281700 20008G18KT P6SM VCSH BKN025 OVC050
     FM282000 20010G18KT P6SM -RA VCTS SCT020CB OVC050 PROB30
      2820/0102 4SM TSRA BKN025CB OVC040=

USA.gov is the U.S. government's official web portal to all federal, state and local government web resources and services.